Terminal Aerodrome Forecast
Issued by NWS Wilmington, OH

Current Version | Previous Version | Text Only | Print | Product List | Glossary Off
Versions: 1 2 3 4 5 6 7 8 9 10 11 12 13 14 15 16 17 18 19 20 21 22 23 24 25

000
FTUS41 KILN 251100
TAFCVG
TAF
KCVG 251120Z 2512/2618 12005KT P6SM VCSH OVC035
     FM251400 12012KT 5SM -SHRA BR OVC025
     FM251800 09012KT P6SM VCSH OVC015
     FM252000 06013KT 5SM -SHRA VCTS BKN008 OVC025CB
     FM252300 04014G24KT P6SM VCSH OVC008
     FM260800 02015G24KT P6SM SCT008 BKN035
     FM261300 01012KT P6SM SCT035=

USA.gov is the U.S. government's official web portal to all federal, state and local government web resources and services.